Jefferson Park, Illinois
Current Conditions -  °F | °C
As of 2:51 PM on Thursday 18 Dec 2014 (Local Time) from KORD Reporting Station
Overcast Overcast  
Wind Chill: 22°   Ceiling: 2400
Heat Index: 28°   Visibility: 10mi
Dew Point: 18°   Wind: 6mph
Humidity: 66%   Direction: 310°NW
Pressure: 30.22"   Gusts: NA
Location:  41.9738°N, 87.7498°W
Report Text: KORD 182051Z 31005KT 10SM OVC024 M02/M08 A3022 RMK AO2 SLP241 T10221078 55012
Loading
Personal Weather Stations






























Interactive Weather Map New forecast layout! Learn more

10-Day Weather Forecast

Advertisements
Track Severe Weather on mobile